sensor_id;sensor_type;location;lat;lon;timestamp;pressure;altitude;pressure_sealevel;temperature;humidity
60228;BME280;46091;46.512;6.626;2023-03-11T00:00:07;96034.66;;;10.68;57.58
60228;BME280;46091;46.512;6.626;2023-03-11T00:02:14;96037.72;;;10.65;57.58
60228;BME280;46091;46.512;6.626;2023-03-11T00:04:17;96034.28;;;10.58;57.86
60228;BME280;46091;46.512;6.626;2023-03-11T00:06:20;96029.84;;;10.52;57.81
60228;BME280;46091;46.512;6.626;2023-03-11T00:08:24;96040.47;;;10.45;57.80
60228;BME280;46091;46.512;6.626;2023-03-11T00:10:29;96039.22;;;10.47;58.05
60228;BME280;46091;46.512;6.626;2023-03-11T00:12:49;96031.06;;;10.49;57.74
60228;BME280;46091;46.512;6.626;2023-03-11T00:14:52;96031.06;;;10.49;57.65
60228;BME280;46091;46.512;6.626;2023-03-11T00:16:55;96030.28;;;10.48;57.96
60228;BME280;46091;46.512;6.626;2023-03-11T00:18:58;96035.56;;;10.48;57.69
60228;BME280;46091;46.512;6.626;2023-03-11T00:21:01;96017.44;;;10.52;57.72
60228;BME280;46091;46.512;6.626;2023-03-11T00:23:05;96012.38;;;10.50;57.66
60228;BME280;46091;46.512;6.626;2023-03-11T00:25:10;95999.56;;;10.54;57.84
60228;BME280;46091;46.512;6.626;2023-03-11T00:27:14;96005.84;;;10.53;58.03
60228;BME280;46091;46.512;6.626;2023-03-11T00:29:16;96011.97;;;10.54;57.80
60228;BME280;46091;46.512;6.626;2023-03-11T00:31:20;96016.81;;;10.57;57.92
60228;BME280;46091;46.512;6.626;2023-03-11T00:33:23;96009.50;;;10.52;57.72
60228;BME280;46091;46.512;6.626;2023-03-11T00:35:28;96016.00;;;10.56;58.12
60228;BME280;46091;46.512;6.626;2023-03-11T00:37:31;96016.22;;;10.55;57.54
60228;BME280;46091;46.512;6.626;2023-03-11T00:39:34;96017.44;;;10.52;58.03
60228;BME280;46091;46.512;6.626;2023-03-11T00:41:39;96024.97;;;10.48;58.14
60228;BME280;46091;46.512;6.626;2023-03-11T00:43:42;96030.28;;;10.48;58.18
60228;BME280;46091;46.512;6.626;2023-03-11T00:45:45;96042.28;;;10.44;57.99
60228;BME280;46091;46.512;6.626;2023-03-11T00:47:48;96040.03;;;10.41;58.27
60228;BME280;46091;46.512;6.626;2023-03-11T00:49:51;96029.06;;;10.44;58.21
60228;BME280;46091;46.512;6.626;2023-03-11T00:51:54;96033.56;;;10.44;58.34
60228;BME280;46091;46.512;6.626;2023-03-11T00:53:57;96035.59;;;10.42;58.02
60228;BME280;46091;46.512;6.626;2023-03-11T00:56:06;96024.81;;;10.43;58.22
60228;BME280;46091;46.512;6.626;2023-03-11T00:58:10;96027.47;;;10.43;58.38
60228;BME280;46091;46.512;6.626;2023-03-11T01:00:15;96027.25;;;10.45;58.39
60228;BME280;46091;46.512;6.626;2023-03-11T01:02:19;96023.78;;;10.44;57.97
60228;BME280;46091;46.512;6.626;2023-03-11T01:04:22;96013.00;;;10.46;58.10
60228;BME280;46091;46.512;6.626;2023-03-11T01:06:25;96009.34;;;10.47;58.32
60228;BME280;46091;46.512;6.626;2023-03-11T01:08:40;96004.28;;;10.45;58.10
60228;BME280;46091;46.512;6.626;2023-03-11T01:10:43;96007.53;;;10.41;57.92
60228;BME280;46091;46.512;6.626;2023-03-11T01:12:46;96013.22;;;10.44;58.32
60228;BME280;46091;46.512;6.626;2023-03-11T01:14:51;96012.38;;;10.50;58.04
60228;BME280;46091;46.512;6.626;2023-03-11T01:16:53;96015.59;;;10.53;57.88
60228;BME280;46091;46.512;6.626;2023-03-11T01:18:57;96013.38;;;10.49;57.86
60228;BME280;46091;46.512;6.626;2023-03-11T01:21:00;96008.91;;;10.50;58.17
60228;BME280;46091;46.512;6.626;2023-03-11T01:23:03;96016.47;;;10.46;58.17
60228;BME280;46091;46.512;6.626;2023-03-11T01:25:07;96014.06;;;10.38;58.24
60228;BME280;46091;46.512;6.626;2023-03-11T01:27:10;96025.03;;;10.42;58.14
60228;BME280;46091;46.512;6.626;2023-03-11T01:29:14;96015.88;;;10.44;57.99
60228;BME280;46091;46.512;6.626;2023-03-11T01:31:18;96006.31;;;10.43;58.24
60228;BME280;46091;46.512;6.626;2023-03-11T01:33:21;95998.41;;;10.43;58.14
60228;BME280;46091;46.512;6.626;2023-03-11T01:35:25;95989.22;;;10.46;58.22
60228;BME280;46091;46.512;6.626;2023-03-11T01:37:28;95992.25;;;10.49;58.35
60228;BME280;46091;46.512;6.626;2023-03-11T01:39:31;95983.88;;;10.53;58.47
60228;BME280;46091;46.512;6.626;2023-03-11T01:41:34;95978.19;;;10.56;57.98
60228;BME280;46091;46.512;6.626;2023-03-11T01:43:47;95970.50;;;10.54;58.35
60228;BME280;46091;46.512;6.626;2023-03-11T01:46:11;95968.03;;;10.53;58.05
60228;BME280;46091;46.512;6.626;2023-03-11T01:48:16;95959.47;;;10.57;58.13
60228;BME280;46091;46.512;6.626;2023-03-11T01:50:19;95952.34;;;10.58;58.35
60228;BME280;46091;46.512;6.626;2023-03-11T01:52:22;95944.00;;;10.61;58.22
60228;BME280;46091;46.512;6.626;2023-03-11T01:54:27;95944.22;;;10.59;58.45
60228;BME280;46091;46.512;6.626;2023-03-11T01:56:33;95935.25;;;10.60;58.10
60228;BME280;46091;46.512;6.626;2023-03-11T01:58:38;95924.69;;;10.60;58.01
60228;BME280;46091;46.512;6.626;2023-03-11T02:00:45;95916.97;;;10.59;58.54
60228;BME280;46091;46.512;6.626;2023-03-11T02:02:50;95925.50;;;10.61;58.19
60228;BME280;46091;46.512;6.626;2023-03-11T02:04:55;95916.75;;;10.60;58.03
60228;BME280;46091;46.512;6.626;2023-03-11T02:06:59;95928.13;;;10.61;58.10
60228;BME280;46091;46.512;6.626;2023-03-11T02:09:03;95936.28;;;10.59;58.54
60228;BME280;46091;46.512;6.626;2023-03-11T02:11:07;95941.94;;;10.63;58.45
60228;BME280;46091;46.512;6.626;2023-03-11T02:13:11;95938.91;;;10.66;58.51
60228;BME280;46091;46.512;6.626;2023-03-11T02:15:14;95930.16;;;10.65;58.26
60228;BME280;46091;46.512;6.626;2023-03-11T02:17:17;95943.75;;;10.69;58.33
60228;BME280;46091;46.512;6.626;2023-03-11T02:19:26;95935.81;;;10.69;58.20
60228;BME280;46091;46.512;6.626;2023-03-11T02:21:33;95939.06;;;10.71;58.25
60228;BME280;46091;46.512;6.626;2023-03-11T02:23:41;95937.88;;;10.67;58.60
60228;BME280;46091;46.512;6.626;2023-03-11T02:25:50;95918.34;;;10.68;58.30
60228;BME280;46091;46.512;6.626;2023-03-11T02:27:57;95899.63;;;10.69;58.43
60228;BME280;46091;46.512;6.626;2023-03-11T02:30:02;95891.84;;;10.74;58.55
60228;BME280;46091;46.512;6.626;2023-03-11T02:32:07;95899.75;;;10.74;58.41
60228;BME280;46091;46.512;6.626;2023-03-11T02:34:15;95889.63;;;10.71;58.67
60228;BME280;46091;46.512;6.626;2023-03-11T02:36:31;95903.66;;;10.72;58.69
60228;BME280;46091;46.512;6.626;2023-03-11T02:38:34;95897.94;;;10.75;58.75
60228;BME280;46091;46.512;6.626;2023-03-11T02:40:43;95898.38;;;10.72;58.81
60228;BME280;46091;46.512;6.626;2023-03-11T02:42:49;95897.19;;;10.68;58.80
60228;BME280;46091;46.512;6.626;2023-03-11T02:44:58;95907.75;;;10.68;58.55
60228;BME280;46091;46.512;6.626;2023-03-11T02:47:01;95923.19;;;10.71;58.81
60228;BME280;46091;46.512;6.626;2023-03-11T02:49:06;95926.06;;;10.69;58.62
60228;BME280;46091;46.512;6.626;2023-03-11T02:51:10;95925.84;;;10.71;58.62
60228;BME280;46091;46.512;6.626;2023-03-11T02:53:13;95922.00;;;10.67;58.63
60228;BME280;46091;46.512;6.626;2023-03-11T02:55:16;95905.13;;;10.68;58.93
60228;BME280;46091;46.512;6.626;2023-03-11T02:57:20;95901.00;;;10.72;58.77
60228;BME280;46091;46.512;6.626;2023-03-11T02:59:23;95884.34;;;10.71;58.82
60228;BME280;46091;46.512;6.626;2023-03-11T03:01:27;95871.13;;;10.71;58.72
60228;BME280;46091;46.512;6.626;2023-03-11T03:03:30;95860.13;;;10.74;58.88
60228;BME280;46091;46.512;6.626;2023-03-11T03:05:33;95854.63;;;10.76;58.53
60228;BME280;46091;46.512;6.626;2023-03-11T03:07:36;95867.84;;;10.76;58.66
60228;BME280;46091;46.512;6.626;2023-03-11T03:09:39;95858.72;;;10.72;58.96
60228;BME280;46091;46.512;6.626;2023-03-11T03:11:42;95860.13;;;10.74;59.00
60228;BME280;46091;46.512;6.626;2023-03-11T03:13:45;95845.06;;;10.75;58.70
60228;BME280;46091;46.512;6.626;2023-03-11T03:15:48;95831.84;;;10.75;58.98
60228;BME280;46091;46.512;6.626;2023-03-11T03:17:52;95853.59;;;10.77;59.04
60228;BME280;46091;46.512;6.626;2023-03-11T03:19:55;95860.72;;;10.76;58.81
60228;BME280;46091;46.512;6.626;2023-03-11T03:21:58;95858.50;;;10.73;58.85
60228;BME280;46091;46.512;6.626;2023-03-11T03:24:01;95844.09;;;10.69;59.18
60228;BME280;46091;46.512;6.626;2023-03-11T03:26:04;95842.28;;;10.70;59.14
60228;BME280;46091;46.512;6.626;2023-03-11T03:28:08;95839.78;;;10.75;58.75
60228;BME280;46091;46.512;6.626;2023-03-11T03:30:12;95823.91;;;10.75;58.82
60228;BME280;46091;46.512;6.626;2023-03-11T03:32:15;95806.44;;;10.74;59.22
60228;BME280;46091;46.512;6.626;2023-03-11T03:34:19;95805.41;;;10.75;58.97
60228;BME280;46091;46.512;6.626;2023-03-11T03:36:22;95800.72;;;10.77;59.06
60228;BME280;46091;46.512;6.626;2023-03-11T03:38:25;95792.00;;;10.76;59.05
60228;BME280;46091;46.512;6.626;2023-03-11T03:40:28;95794.25;;;10.73;58.98
60228;BME280;46091;46.512;6.626;2023-03-11T03:42:31;95806.44;;;10.74;59.07
60228;BME280;46091;46.512;6.626;2023-03-11T03:44:34;95814.22;;;10.69;59.12
60228;BME280;46091;46.512;6.626;2023-03-11T03:46:37;95799.41;;;10.68;59.45
60228;BME280;46091;46.512;6.626;2023-03-11T03:48:40;95791.25;;;10.69;58.90
60228;BME280;46091;46.512;6.626;2023-03-11T03:50:44;95796.09;;;10.72;59.06
60228;BME280;46091;46.512;6.626;2023-03-11T03:52:47;95812.53;;;10.74;59.13
60228;BME280;46091;46.512;6.626;2023-03-11T03:54:50;95812.75;;;10.73;59.35
60228;BME280;46091;46.512;6.626;2023-03-11T03:56:53;95797.47;;;10.75;59.20
60228;BME280;46091;46.512;6.626;2023-03-11T03:58:57;95788.75;;;10.74;59.31
60228;BME280;46091;46.512;6.626;2023-03-11T04:00:59;95788.97;;;10.73;59.15
60228;BME280;46091;46.512;6.626;2023-03-11T04:03:03;95794.25;;;10.73;59.31
60228;BME280;46091;46.512;6.626;2023-03-11T04:05:07;95809.31;;;10.72;59.31
60228;BME280;46091;46.512;6.626;2023-03-11T04:07:11;95802.41;;;10.71;59.28
60228;BME280;46091;46.512;6.626;2023-03-11T04:09:14;95791.03;;;10.71;59.36
60228;BME280;46091;46.512;6.626;2023-03-11T04:11:17;95763.34;;;10.73;59.18
60228;BME280;46091;46.512;6.626;2023-03-11T04:13:20;95737.88;;;10.79;58.98
60228;BME280;46091;46.512;6.626;2023-03-11T04:15:23;95749.25;;;10.79;59.21
60228;BME280;46091;46.512;6.626;2023-03-11T04:17:26;95786.50;;;10.78;59.19
60228;BME280;46091;46.512;6.626;2023-03-11T04:19:29;95800.13;;;10.75;59.16
60228;BME280;46091;46.512;6.626;2023-03-11T04:21:32;95804.00;;;10.72;59.47
60228;BME280;46091;46.512;6.626;2023-03-11T04:23:36;95809.31;;;10.72;59.24
60228;BME280;46091;46.512;6.626;2023-03-11T04:25:39;95817.81;;;10.74;59.13
60228;BME280;46091;46.512;6.626;2023-03-11T04:27:42;95803.56;;;10.75;59.51
60228;BME280;46091;46.512;6.626;2023-03-11T04:29:46;95801.16;;;10.74;59.41
60228;BME280;46091;46.512;6.626;2023-03-11T04:31:49;95804.22;;;10.71;59.51
60228;BME280;46091;46.512;6.626;2023-03-11T04:33:52;95806.06;;;10.70;59.36
60228;BME280;46091;46.512;6.626;2023-03-11T04:35:55;95806.88;;;10.71;59.43
60228;BME280;46091;46.512;6.626;2023-03-11T04:37:58;95791.03;;;10.71;59.61
60228;BME280;46091;46.512;6.626;2023-03-11T04:40:03;95771.25;;;10.73;59.41
60228;BME280;46091;46.512;6.626;2023-03-11T04:42:07;95779.41;;;10.72;59.68
60228;BME280;46091;46.512;6.626;2023-03-11T04:44:10;95799.75;;;10.71;59.35
60228;BME280;46091;46.512;6.626;2023-03-11T04:46:13;95812.16;;;10.71;59.63
60228;BME280;46091;46.512;6.626;2023-03-11T04:48:16;95807.09;;;10.69;59.24
60228;BME280;46091;46.512;6.626;2023-03-11T04:50:19;95808.50;;;10.72;59.72
60228;BME280;46091;46.512;6.626;2023-03-11T04:52:22;95791.03;;;10.71;59.42
60228;BME280;46091;46.512;6.626;2023-03-11T04:54:24;95779.63;;;10.70;59.46
60228;BME280;46091;46.512;6.626;2023-03-11T04:56:29;95800.78;;;10.70;59.38
60228;BME280;46091;46.512;6.626;2023-03-11T04:58:32;95797.91;;;10.72;59.37
60228;BME280;46091;46.512;6.626;2023-03-11T05:00:35;95795.28;;;10.72;59.30
60228;BME280;46091;46.512;6.626;2023-03-11T05:02:39;95792.63;;;10.72;59.57
60228;BME280;46091;46.512;6.626;2023-03-11T05:04:42;95810.31;;;10.71;59.42
60228;BME280;46091;46.512;6.626;2023-03-11T05:06:46;95812.38;;;10.69;59.41
60228;BME280;46091;46.512;6.626;2023-03-11T05:08:51;95802.03;;;10.68;59.41
60228;BME280;46091;46.512;6.626;2023-03-11T05:10:54;95781.47;;;10.70;59.40
60228;BME280;46091;46.512;6.626;2023-03-11T05:12:58;95791.03;;;10.71;59.64
60228;BME280;46091;46.512;6.626;2023-03-11T05:15:01;95802.63;;;10.70;59.74
60228;BME280;46091;46.512;6.626;2023-03-11T05:17:04;95798.94;;;10.71;59.67
60228;BME280;46091;46.512;6.626;2023-03-11T05:19:07;95802.75;;;10.75;59.42
60228;BME280;46091;46.512;6.626;2023-03-11T05:21:24;95798.50;;;10.74;59.77
60228;BME280;46091;46.512;6.626;2023-03-11T05:23:27;95795.88;;;10.74;59.49
60228;BME280;46091;46.512;6.626;2023-03-11T05:25:30;95788.97;;;10.73;59.62
60228;BME280;46091;46.512;6.626;2023-03-11T05:27:33;95800.72;;;10.77;59.56
60228;BME280;46091;46.512;6.626;2023-03-11T05:29:37;95796.47;;;10.76;59.36
60228;BME280;46091;46.512;6.626;2023-03-11T05:31:40;95793.38;;;10.79;59.70
60228;BME280;46091;46.512;6.626;2023-03-11T05:33:43;95793.38;;;10.79;59.83
60228;BME280;46091;46.512;6.626;2023-03-11T05:35:46;95798.69;;;10.79;59.55
60228;BME280;46091;46.512;6.626;2023-03-11T05:37:49;95810.88;;;10.80;59.57
60228;BME280;46091;46.512;6.626;2023-03-11T05:39:54;95809.47;;;10.77;59.64
60228;BME280;46091;46.512;6.626;2023-03-11T05:41:57;95808.66;;;10.77;59.71
60228;BME280;46091;46.512;6.626;2023-03-11T05:43:59;95818.63;;;10.75;59.97
60228;BME280;46091;46.512;6.626;2023-03-11T05:46:04;95811.34;;;10.70;59.82
60228;BME280;46091;46.512;6.626;2023-03-11T05:48:07;95807.31;;;10.68;59.96
60228;BME280;46091;46.512;6.626;2023-03-11T05:50:11;95810.19;;;10.66;59.92
60228;BME280;46091;46.512;6.626;2023-03-11T05:52:14;95805.31;;;10.63;59.81
60228;BME280;46091;46.512;6.626;2023-03-11T05:54:17;95809.78;;;10.63;60.08
60228;BME280;46091;46.512;6.626;2023-03-11T05:56:21;95817.13;;;10.61;59.92
60228;BME280;46091;46.512;6.626;2023-03-11T05:58:24;95819.78;;;10.61;60.11
60228;BME280;46091;46.512;6.626;2023-03-11T06:00:28;95819.34;;;10.64;59.96
60228;BME280;46091;46.512;6.626;2023-03-11T06:02:32;95814.44;;;10.67;59.93
60228;BME280;46091;46.512;6.626;2023-03-11T06:04:35;95825.16;;;10.72;59.88
60228;BME280;46091;46.512;6.626;2023-03-11T06:06:39;95825.97;;;10.73;59.91
60228;BME280;46091;46.512;6.626;2023-03-11T06:08:42;95836.97;;;10.70;59.69
60228;BME280;46091;46.512;6.626;2023-03-11T06:10:50;95834.34;;;10.70;59.89
60228;BME280;46091;46.512;6.626;2023-03-11T06:12:53;95832.72;;;10.69;59.96
60228;BME280;46091;46.512;6.626;2023-03-11T06:14:56;95840.06;;;10.67;60.08
60228;BME280;46091;46.512;6.626;2023-03-11T06:16:58;95844.56;;;10.66;60.06
60228;BME280;46091;46.512;6.626;2023-03-11T06:19:03;95846.38;;;10.66;59.83
60228;BME280;46091;46.512;6.626;2023-03-11T06:21:06;95845.94;;;10.69;60.13
60228;BME280;46091;46.512;6.626;2023-03-11T06:23:09;95840.44;;;10.70;59.85
60228;BME280;46091;46.512;6.626;2023-03-11T06:25:12;95832.88;;;10.74;59.69
60228;BME280;46091;46.512;6.626;2023-03-11T06:27:15;95834.47;;;10.75;59.80
60228;BME280;46091;46.512;6.626;2023-03-11T06:29:18;95834.06;;;10.78;59.95
60228;BME280;46091;46.512;6.626;2023-03-11T06:31:23;95831.44;;;10.78;60.12
60228;BME280;46091;46.512;6.626;2023-03-11T06:33:27;95833.63;;;10.81;60.14
60228;BME280;46091;46.512;6.626;2023-03-11T06:35:31;95837.31;;;10.80;60.22
60228;BME280;46091;46.512;6.626;2023-03-11T06:37:35;95833.41;;;10.83;60.15
60228;BME280;46091;46.512;6.626;2023-03-11T06:39:38;95835.25;;;10.82;60.00
60228;BME280;46091;46.512;6.626;2023-03-11T06:41:41;95830.63;;;10.77;60.08
60228;BME280;46091;46.512;6.626;2023-03-11T06:43:44;95834.06;;;10.78;60.38
60228;BME280;46091;46.512;6.626;2023-03-11T06:45:47;95840.38;;;10.77;60.28
60228;BME280;46091;46.512;6.626;2023-03-11T06:47:50;95829.81;;;10.77;60.24
60228;BME280;46091;46.512;6.626;2023-03-11T06:49:53;95829.41;;;10.73;60.25
60228;BME280;46091;46.512;6.626;2023-03-11T06:51:57;95827.22;;;10.70;60.20
60228;BME280;46091;46.512;6.626;2023-03-11T06:54:00;95833.91;;;10.73;60.30
60228;BME280;46091;46.512;6.626;2023-03-11T06:56:05;95828.38;;;10.74;60.44
60228;BME280;46091;46.512;6.626;2023-03-11T06:58:08;95834.94;;;10.72;60.60
60228;BME280;46091;46.512;6.626;2023-03-11T07:00:12;95843.06;;;10.70;60.45
60228;BME280;46091;46.512;6.626;2023-03-11T07:02:15;95843.44;;;10.74;60.74
60228;BME280;46091;46.512;6.626;2023-03-11T07:04:18;95854.03;;;10.74;60.35
60228;BME280;46091;46.512;6.626;2023-03-11T07:06:23;95853.28;;;10.67;60.51
60228;BME280;46091;46.512;6.626;2023-03-11T07:08:28;95856.50;;;10.69;60.51
60228;BME280;46091;46.512;6.626;2023-03-11T07:10:31;95852.25;;;10.68;60.49
60228;BME280;46091;46.512;6.626;2023-03-11T07:12:34;95848.00;;;10.67;60.53
60228;BME280;46091;46.512;6.626;2023-03-11T07:14:37;95843.56;;;10.61;60.71
60228;BME280;46091;46.512;6.626;2023-03-11T07:16:40;95857.81;;;10.60;60.71
60228;BME280;46091;46.512;6.626;2023-03-11T07:18:45;95856.41;;;10.57;60.84
60228;BME280;46091;46.512;6.626;2023-03-11T07:20:48;95849.28;;;10.58;60.66
60228;BME280;46091;46.512;6.626;2023-03-11T07:22:51;95862.28;;;10.59;61.02
60228;BME280;46091;46.512;6.626;2023-03-11T07:24:55;95857.75;;;10.66;60.98
60228;BME280;46091;46.512;6.626;2023-03-11T07:26:58;95871.78;;;10.67;60.69
60228;BME280;46091;46.512;6.626;2023-03-11T07:29:02;95871.78;;;10.67;60.68
60228;BME280;46091;46.512;6.626;2023-03-11T07:31:08;95874.22;;;10.68;60.90
60228;BME280;46091;46.512;6.626;2023-03-11T07:33:11;95873.41;;;10.68;60.91
60228;BME280;46091;46.512;6.626;2023-03-11T07:35:14;95875.25;;;10.67;60.85
60228;BME280;46091;46.512;6.626;2023-03-11T07:37:18;95875.25;;;10.67;60.82
60228;BME280;46091;46.512;6.626;2023-03-11T07:39:21;95879.13;;;10.65;61.20
60228;BME280;46091;46.512;6.626;2023-03-11T07:41:26;95892.34;;;10.65;61.25
60228;BME280;46091;46.512;6.626;2023-03-11T07:43:29;95880.13;;;10.64;61.20
60228;BME280;46091;46.512;6.626;2023-03-11T07:45:32;95881.56;;;10.66;60.90
60228;BME280;46091;46.512;6.626;2023-03-11T07:47:35;95876.25;;;10.66;60.84
60228;BME280;46091;46.512;6.626;2023-03-11T07:49:37;95880.53;;;10.67;60.87
60228;BME280;46091;46.512;6.626;2023-03-11T07:51:41;95886.63;;;10.68;60.98
60228;BME280;46091;46.512;6.626;2023-03-11T07:53:45;95889.25;;;10.68;61.07
60228;BME280;46091;46.512;6.626;2023-03-11T07:55:48;95880.09;;;10.70;60.86
60228;BME280;46091;46.512;6.626;2023-03-11T07:57:52;95879.44;;;10.75;61.17
60228;BME280;46091;46.512;6.626;2023-03-11T07:59:55;95883.72;;;10.76;60.87
60228;BME280;46091;46.512;6.626;2023-03-11T08:01:58;95881.06;;;10.76;60.91
60228;BME280;46091;46.512;6.626;2023-03-11T08:04:02;95891.03;;;10.74;60.92
60228;BME280;46091;46.512;6.626;2023-03-11T08:06:11;95886.78;;;10.73;61.04
60228;BME280;46091;46.512;6.626;2023-03-11T08:08:14;95884.94;;;10.73;61.19
60228;BME280;46091;46.512;6.626;2023-03-11T08:10:17;95894.28;;;10.76;61.40
60228;BME280;46091;46.512;6.626;2023-03-11T08:12:20;95897.31;;;10.79;61.07
60228;BME280;46091;46.512;6.626;2023-03-11T08:14:24;95910.53;;;10.79;61.12
60228;BME280;46091;46.512;6.626;2023-03-11T08:16:27;95915.59;;;10.81;61.35
60228;BME280;46091;46.512;6.626;2023-03-11T08:18:31;95922.28;;;10.84;60.79
60228;BME280;46091;46.512;6.626;2023-03-11T08:20:36;95941.00;;;10.82;61.27
60228;BME280;46091;46.512;6.626;2023-03-11T08:22:39;95948.34;;;10.80;61.29
60228;BME280;46091;46.512;6.626;2023-03-11T08:24:57;95960.16;;;10.77;61.10
60228;BME280;46091;46.512;6.626;2023-03-11T08:27:00;95968.31;;;10.76;61.16
60228;BME280;46091;46.512;6.626;2023-03-11T08:29:03;95965.44;;;10.77;61.49
60228;BME280;46091;46.512;6.626;2023-03-11T08:31:12;95973.16;;;10.79;61.40
60228;BME280;46091;46.512;6.626;2023-03-11T08:33:15;95967.06;;;10.78;61.64
60228;BME280;46091;46.512;6.626;2023-03-11T08:35:18;95969.88;;;10.84;61.25
60228;BME280;46091;46.512;6.626;2023-03-11T08:37:22;95984.88;;;10.90;61.56
60228;BME280;46091;46.512;6.626;2023-03-11T08:39:25;95985.25;;;10.93;61.33
60228;BME280;46091;46.512;6.626;2023-03-11T08:41:27;95982.63;;;10.93;61.30
60228;BME280;46091;46.512;6.626;2023-03-11T08:43:30;95989.53;;;10.94;61.46
60228;BME280;46091;46.512;6.626;2023-03-11T08:45:33;95987.31;;;10.91;61.48
60228;BME280;46091;46.512;6.626;2023-03-11T08:47:38;95990.53;;;10.93;61.38
60228;BME280;46091;46.512;6.626;2023-03-11T08:49:41;95986.88;;;10.94;61.36
60228;BME280;46091;46.512;6.626;2023-03-11T08:51:44;95988.28;;;10.97;61.63
60228;BME280;46091;46.512;6.626;2023-03-11T08:53:48;95987.66;;;11.01;61.08
60228;BME280;46091;46.512;6.626;2023-03-11T08:55:52;95988.81;;;11.05;61.34
60228;BME280;46091;46.512;6.626;2023-03-11T08:57:55;95990.00;;;11.09;61.00
60228;BME280;46091;46.512;6.626;2023-03-11T08:59:57;95996.94;;;11.11;61.00
60228;BME280;46091;46.512;6.626;2023-03-11T09:02:00;96002.00;;;11.12;61.22
60228;BME280;46091;46.512;6.626;2023-03-11T09:04:05;96010.75;;;11.13;60.95
60228;BME280;46091;46.512;6.626;2023-03-11T09:06:10;96009.34;;;11.10;61.08
60228;BME280;46091;46.512;6.626;2023-03-11T09:08:16;96018.94;;;11.04;61.45
60228;BME280;46091;46.512;6.626;2023-03-11T09:10:18;96026.88;;;11.04;61.73
60228;BME280;46091;46.512;6.626;2023-03-11T09:12:22;96034.81;;;11.04;61.70
60228;BME280;46091;46.512;6.626;2023-03-11T09:14:25;96029.53;;;11.04;61.49
60228;BME280;46091;46.512;6.626;2023-03-11T09:16:28;96032.59;;;11.01;61.41
60228;BME280;46091;46.512;6.626;2023-03-11T09:18:31;96038.94;;;11.00;61.37
60228;BME280;46091;46.512;6.626;2023-03-11T09:20:37;96047.66;;;11.01;61.42
60228;BME280;46091;46.512;6.626;2023-03-11T09:22:40;96045.41;;;11.04;61.63
60228;BME280;46091;46.512;6.626;2023-03-11T09:24:43;96051.94;;;11.02;61.51
60228;BME280;46091;46.512;6.626;2023-03-11T09:26:46;96049.72;;;10.99;61.47
60228;BME280;46091;46.512;6.626;2023-03-11T09:28:49;96051.97;;;10.95;61.80
60228;BME280;46091;46.512;6.626;2023-03-11T09:30:52;96051.16;;;10.95;61.66
60228;BME280;46091;46.512;6.626;2023-03-11T09:32:55;96051.59;;;10.92;61.70
60228;BME280;46091;46.512;6.626;2023-03-11T09:34:58;96059.31;;;10.93;61.83
60228;BME280;46091;46.512;6.626;2023-03-11T09:37:02;96048.72;;;10.93;61.88
60228;BME280;46091;46.512;6.626;2023-03-11T09:39:05;96060.53;;;10.91;61.50
60228;BME280;46091;46.512;6.626;2023-03-11T09:41:19;96059.75;;;10.90;61.56
60228;BME280;46091;46.512;6.626;2023-03-11T09:43:34;96064.59;;;10.93;61.75
60228;BME280;46091;46.512;6.626;2023-03-11T09:45:44;96062.75;;;10.94;61.59
60228;BME280;46091;46.512;6.626;2023-03-11T09:48:01;96069.06;;;10.93;61.60
60228;BME280;46091;46.512;6.626;2023-03-11T09:50:28;96073.78;;;10.91;61.85
60228;BME280;46091;46.512;6.626;2023-03-11T09:52:36;96064.81;;;10.92;61.68
60228;BME280;46091;46.512;6.626;2023-03-11T09:54:46;96072.91;;;10.97;61.67
60228;BME280;46091;46.512;6.626;2023-03-11T09:56:49;96071.50;;;10.94;61.33
60228;BME280;46091;46.512;6.626;2023-03-11T09:58:55;96077.59;;;10.95;61.72
60228;BME280;46091;46.512;6.626;2023-03-11T10:01:01;96075.53;;;10.97;61.57
60228;BME280;46091;46.512;6.626;2023-03-11T10:03:11;96073.31;;;11.00;61.51
60228;BME280;46091;46.512;6.626;2023-03-11T10:05:19;96077.97;;;10.98;61.38
60228;BME280;46091;46.512;6.626;2023-03-11T10:07:27;96078.41;;;10.95;61.47
60228;BME280;46091;46.512;6.626;2023-03-11T10:09:39;96077.16;;;10.98;61.41
60228;BME280;46091;46.512;6.626;2023-03-11T10:11:53;96072.09;;;10.96;61.14
60228;BME280;46091;46.512;6.626;2023-03-11T10:14:08;96066.66;;;10.91;61.11
60228;BME280;46091;46.512;6.626;2023-03-11T10:16:21;96070.69;;;10.94;61.04
60228;BME280;46091;46.512;6.626;2023-03-11T10:18:37;96073.34;;;10.94;60.99
60228;BME280;46091;46.512;6.626;2023-03-11T10:20:51;96085.16;;;10.91;61.37
60228;BME280;46091;46.512;6.626;2023-03-11T10:23:07;96085.59;;;10.88;61.34
60228;BME280;46091;46.512;6.626;2023-03-11T10:25:16;96089.41;;;10.92;61.24
60228;BME280;46091;46.512;6.626;2023-03-11T10:27:22;96080.47;;;10.93;61.14
60228;BME280;46091;46.512;6.626;2023-03-11T10:29:29;96085.75;;;10.93;61.14
60228;BME280;46091;46.512;6.626;2023-03-11T10:31:36;96078.84;;;10.92;60.99
60228;BME280;46091;46.512;6.626;2023-03-11T10:33:43;96088.41;;;10.93;61.25
60228;BME280;46091;46.512;6.626;2023-03-11T10:35:51;96090.22;;;10.93;61.04
60228;BME280;46091;46.512;6.626;2023-03-11T10:37:59;96094.50;;;10.94;61.23
60228;BME280;46091;46.512;6.626;2023-03-11T10:40:19;96088.22;;;10.88;61.03
60228;BME280;46091;46.512;6.626;2023-03-11T10:42:26;96094.13;;;10.90;61.24
60228;BME280;46091;46.512;6.626;2023-03-11T10:44:33;96096.16;;;10.88;61.14
60228;BME280;46091;46.512;6.626;2023-03-11T10:46:37;96105.28;;;10.92;60.96
60228;BME280;46091;46.512;6.626;2023-03-11T10:48:40;96098.00;;;10.88;61.25
60228;BME280;46091;46.512;6.626;2023-03-11T10:50:49;96100.44;;;10.89;61.05
60228;BME280;46091;46.512;6.626;2023-03-11T10:53:05;96097.94;;;10.94;60.93
60228;BME280;46091;46.512;6.626;2023-03-11T10:55:15;96089.78;;;10.96;61.29
60228;BME280;46091;46.512;6.626;2023-03-11T10:57:24;96089.78;;;10.96;61.26
60228;BME280;46091;46.512;6.626;2023-03-11T10:59:30;96092.63;;;11.01;61.15